Wilmington, OH

9:02 AM EST on December 06, 2016 (GMT -0500)
2.2 N Wilmington | | Change Station

Elev 1053 ft 39.47 °N, 83.84 °W | Updated 13 minutes ago

Light Rain
Light Rain Mist
37.5 °F
Feels Like 32 °F
N
8.0
Wind Variable Wind from NE
Gusts 11.0 mph

Today
High -- | Low -- °F
--% Chance of Precip.
Yesterday
High -- | Low -- °F
Precip. -- in
Pressure 29.73 in
Visibility 3.0 miles
Clouds Mostly Cloudy 400 ft
Mostly Cloudy 2000 ft
Overcast 2800 ft
Windchill 32 °F
Dew Point 36 °F
Humidity 95%
Rainfall 0.09 in
Snow Depth Not available.
7:41 AM 5:11 PM
Waxing Crescent, 42% visible
METAR KILN 061354Z AUTO 12008KT 3SM -RA BR BKN004 BKN020 OVC028 03/03 A2966 RMK AO2 SLP065 P0002 T00330033
Pressure 29.73 in
Visibility 3.0 miles
Clouds Mostly Cloudy 400 ft
Mostly Cloudy 2000 ft
Overcast 2800 ft
Windchill 32 °F
Dew Point 36 °F
Humidity 95%
Rainfall 0.09 in
Snow Depth Not available.
7:41 AM 5:11 PM
Waxing Crescent, 42% visible
METAR KILN 061354Z AUTO 12008KT 3SM -RA BR BKN004 BKN020 OVC028 03/03 A2966 RMK AO2 SLP065 P0002 T00330033

10-Day Weather Forecast

Almanac

Astronomy

Dec. 06, 2016 Rise Set
Actual Time
Civil Twilight
Nautical Twilight
Astronomical Twilight
Moon
Length of Visible Light
Length of Day
Tomorrow will be .
, % of the Moon is Illuminated

Today's Extremes

State Highs State Lows

Community

WunderPhotos

Upload Photos

1,955,949 photos uploaded!

WunderBlog® & News

Nearby

Air Quality

  Air Quality AQ Index Pollutant
Not available.

Snow Depth

Station Depth Elevation

Earthquake Activity

City Distance Mag. Time & Date
Minimum magnitude displayed is 2.5.

Coastal Water Temperatures

Place Temperature

Stations

Nearby Weather Stations

Station Location Temp. Windchill Dew Point Humidity Wind Precip. Elev Updated Type
                   

Watches & Warnings

There are currently no watches in effect.